createdAt,value
2022-10-24T00:02:46.349Z,9.90
2022-10-24T00:05:52.770Z,9.10
2022-10-24T00:08:59.091Z,7.77
2022-10-24T00:12:05.783Z,10.33
2022-10-24T00:15:12.135Z,9.93
2022-10-24T00:18:19.635Z,7.83
2022-10-24T00:21:25.677Z,10.60
2022-10-24T00:24:32.023Z,7.40
2022-10-24T00:27:38.386Z,9.73
2022-10-24T00:30:44.836Z,8.20
2022-10-24T00:33:52.251Z,6.20
2022-10-24T00:36:58.239Z,7.03
2022-10-24T00:40:05.417Z,15.93
2022-10-24T00:43:16.374Z,8.23
2022-10-24T00:46:22.635Z,8.67
2022-10-24T00:49:33.203Z,9.97
2022-10-24T00:52:44.616Z,7.87
2022-10-24T00:55:53.538Z,5.83
2022-10-24T00:59:00.918Z,6.87
2022-10-24T01:02:07.440Z,4.63
2022-10-24T01:05:15.927Z,19.93
2022-10-24T01:08:32.590Z,7.83
2022-10-24T01:11:54.881Z,6.57
2022-10-24T01:15:06.868Z,7.63
2022-10-24T01:18:18.746Z,12.53
2022-10-24T01:21:34.350Z,8.87
2022-10-24T01:24:59.489Z,12.77
2022-10-24T01:28:10.279Z,8.83
2022-10-24T01:31:26.098Z,11.67
2022-10-24T01:34:42.863Z,9.53
2022-10-24T01:37:54.108Z,6.73
2022-10-24T01:41:04.132Z,9.50
2022-10-24T01:44:16.681Z,7.93
2022-10-24T01:47:28.112Z,85.37
2022-10-24T01:50:38.103Z,12.27
2022-10-24T01:53:45.317Z,41.60
2022-10-24T01:56:52.848Z,15.27
2022-10-24T01:59:58.899Z,9.57
2022-10-24T02:03:17.387Z,8.90
2022-10-24T02:06:28.382Z,6.43
2022-10-24T02:09:37.037Z,9.07
2022-10-24T02:12:50.640Z,7.57
2022-10-24T02:15:59.866Z,4.57
2022-10-24T02:19:07.731Z,4.87
2022-10-24T02:22:22.885Z,7.83
2022-10-24T02:25:35.073Z,3.83
2022-10-24T02:28:44.850Z,4.20
2022-10-24T02:31:55.443Z,4.93
2022-10-24T02:35:05.500Z,4.90
2022-10-24T02:38:17.051Z,7.20
2022-10-24T02:41:26.946Z,9.10
2022-10-24T02:44:33.863Z,10.30
2022-10-24T02:47:42.051Z,10.47
2022-10-24T02:53:58.330Z,12.73
2022-10-24T02:57:05.460Z,17.13
2022-10-24T03:00:12.602Z,12.00
2022-10-24T03:03:18.620Z,11.93
2022-10-24T03:06:26.618Z,8.77
2022-10-24T03:09:32.547Z,7.57
2022-10-24T03:12:38.822Z,7.33
2022-10-24T03:15:45.085Z,6.07
2022-10-24T03:18:51.166Z,8.10
2022-10-24T03:21:58.866Z,9.20
2022-10-24T03:25:06.433Z,12.30
2022-10-24T03:28:12.708Z,9.03
2022-10-24T03:31:19.155Z,9.83
2022-10-24T03:34:25.575Z,13.87
2022-10-24T03:37:33.068Z,15.23
2022-10-24T03:40:40.130Z,14.40
2022-10-24T03:43:46.290Z,10.97
2022-10-24T03:46:52.520Z,20.63
2022-10-24T03:49:58.842Z,14.70
2022-10-24T03:53:06.496Z,11.20
2022-10-24T03:56:12.765Z,15.50
2022-10-24T03:59:19.341Z,13.67
2022-10-24T04:02:25.048Z,34.47
2022-10-24T04:05:31.414Z,19.63
2022-10-24T04:08:38.935Z,18.87
2022-10-24T04:11:44.861Z,39.13
2022-10-24T04:14:51.051Z,23.07
2022-10-24T04:17:57.300Z,8.53
2022-10-24T04:21:03.979Z,15.47
2022-10-24T04:24:11.601Z,11.17
2022-10-24T04:27:17.987Z,16.00
2022-10-24T04:30:24.451Z,19.93
2022-10-24T04:33:30.753Z,26.50
2022-10-24T04:36:37.137Z,23.30
2022-10-24T04:39:45.085Z,28.37
2022-10-24T04:42:51.355Z,39.27
2022-10-24T04:45:57.749Z,27.03
2022-10-24T04:49:04.120Z,19.17
2022-10-24T04:52:10.272Z,29.80
2022-10-24T04:55:18.147Z,28.77
2022-10-24T04:58:24.474Z,36.03
2022-10-24T05:01:30.775Z,32.30
2022-10-24T05:04:36.559Z,20.63
2022-10-24T05:07:43.095Z,18.67
2022-10-24T05:10:51.059Z,32.27
2022-10-24T05:13:57.069Z,28.17
2022-10-24T05:17:03.481Z,15.17
2022-10-24T05:20:11.290Z,12.63
2022-10-24T05:23:17.457Z,17.30
2022-10-24T05:26:25.274Z,50.93
2022-10-24T05:29:31.428Z,66.23
2022-10-24T05:32:39.627Z,51.30
2022-10-24T05:35:46.264Z,30.60
2022-10-24T05:38:52.793Z,20.50
2022-10-24T05:42:00.696Z,15.67
2022-10-24T05:45:08.398Z,21.60
2022-10-24T05:48:14.864Z,51.97
2022-10-24T05:51:21.308Z,17.70
2022-10-24T05:54:33.431Z,19.73
2022-10-24T05:57:50.239Z,20.30
2022-10-24T06:00:56.241Z,24.10
2022-10-24T06:04:02.498Z,26.23
2022-10-24T06:07:08.823Z,24.07
2022-10-24T06:10:15.711Z,22.63
2022-10-24T06:13:23.415Z,12.53
2022-10-24T06:16:30.802Z,9.83
2022-10-24T06:19:37.915Z,11.83
2022-10-24T06:22:46.321Z,18.17
2022-10-24T06:25:52.956Z,16.67
2022-10-24T06:29:00.655Z,17.97
2022-10-24T06:32:06.721Z,17.43
2022-10-24T06:35:14.836Z,14.63
2022-10-24T06:38:20.849Z,31.73
2022-10-24T06:41:27.365Z,22.43
2022-10-24T06:44:35.152Z,26.90
2022-10-24T06:47:41.599Z,23.23
2022-10-24T06:50:48.023Z,21.50
2022-10-24T06:53:54.351Z,20.60
2022-10-24T06:57:00.803Z,21.07
2022-10-24T07:00:10.229Z,13.93
2022-10-24T07:03:17.700Z,12.80
2022-10-24T07:06:25.841Z,21.37
2022-10-24T07:09:32.140Z,19.00
2022-10-24T07:12:38.500Z,12.50
2022-10-24T07:15:46.166Z,11.93
2022-10-24T07:18:52.294Z,10.83
2022-10-24T07:21:59.426Z,9.67
2022-10-24T07:25:07.731Z,8.07
2022-10-24T07:28:13.882Z,10.93
2022-10-24T07:31:22.849Z,10.60
2022-10-24T07:34:28.877Z,11.03
2022-10-24T07:37:35.319Z,14.40
2022-10-24T07:40:41.397Z,13.93
2022-10-24T07:43:48.634Z,16.83
2022-10-24T07:46:56.116Z,15.20
2022-10-24T07:50:02.167Z,14.60
2022-10-24T07:53:08.522Z,15.70
2022-10-24T07:56:15.988Z,13.40
2022-10-24T07:59:40.875Z,12.10
2022-10-24T08:06:00.504Z,11.77
2022-10-24T08:09:06.880Z,8.13
2022-10-24T08:12:13.279Z,6.83
2022-10-24T08:15:19.876Z,7.83
2022-10-24T08:18:30.296Z,9.03
2022-10-24T08:21:37.581Z,8.07
2022-10-24T08:24:44.276Z,8.33
2022-10-24T08:27:50.381Z,14.73
2022-10-24T08:30:57.883Z,8.13
2022-10-24T08:34:06.235Z,7.57
2022-10-24T08:37:12.632Z,6.43
2022-10-24T08:40:21.047Z,7.00
2022-10-24T08:43:27.848Z,6.20
2022-10-24T08:46:49.007Z,5.03
2022-10-24T08:50:02.987Z,6.33
2022-10-24T08:53:15.171Z,5.77
2022-10-24T08:56:22.282Z,9.13
2022-10-24T08:59:32.001Z,6.43
2022-10-24T09:02:39.891Z,8.07
2022-10-24T09:05:51.695Z,4.33
2022-10-24T09:09:00.155Z,7.73
2022-10-24T09:12:12.516Z,10.03
2022-10-24T09:15:29.828Z,10.83
2022-10-24T09:18:39.422Z,10.13
2022-10-24T09:21:49.032Z,8.33
2022-10-24T09:24:59.804Z,5.40
2022-10-24T09:28:07.582Z,8.80
2022-10-24T09:31:19.005Z,13.27
2022-10-24T09:34:25.356Z,4.73
2022-10-24T09:37:43.928Z,8.57
2022-10-24T09:40:52.291Z,6.27
2022-10-24T09:44:00.605Z,4.73
2022-10-24T09:47:10.386Z,7.00
2022-10-24T09:50:21.936Z,4.47
2022-10-24T09:53:32.085Z,13.20
2022-10-24T09:56:40.677Z,8.60
2022-10-24T09:59:48.037Z,5.10
2022-10-24T10:03:03.193Z,4.80
2022-10-24T10:06:18.869Z,6.10
2022-10-24T10:09:31.870Z,10.80
2022-10-24T10:12:40.356Z,6.67
2022-10-24T10:15:50.469Z,11.33
2022-10-24T10:19:03.902Z,33.57
2022-10-24T10:22:26.635Z,8.40
2022-10-24T10:25:34.152Z,6.00
2022-10-24T10:28:49.480Z,7.73
2022-10-24T10:32:07.148Z,6.60
2022-10-24T10:35:21.249Z,7.10
2022-10-24T10:38:43.769Z,7.10
2022-10-24T10:41:59.040Z,10.77
2022-10-24T10:45:19.398Z,17.30
2022-10-24T10:48:38.843Z,6.13
2022-10-24T10:51:49.342Z,9.30
2022-10-24T10:55:15.217Z,11.67
2022-10-24T11:01:51.500Z,9.23
2022-10-24T11:05:10.597Z,8.07
2022-10-24T11:08:32.247Z,14.03
2022-10-24T11:11:42.440Z,9.87
2022-10-24T11:14:55.180Z,9.70
2022-10-24T11:18:07.775Z,15.23
2022-10-24T11:21:16.288Z,7.67
2022-10-24T11:24:24.655Z,10.53
2022-10-24T11:27:40.031Z,9.87
2022-10-24T11:30:54.341Z,7.53
2022-10-24T11:34:04.612Z,10.87
2022-10-24T11:37:17.552Z,6.70
2022-10-24T11:40:25.712Z,7.70
2022-10-24T11:43:39.158Z,5.07
2022-10-24T11:46:54.890Z,6.80
2022-10-24T11:50:08.488Z,7.67
2022-10-24T11:53:24.795Z,9.40
2022-10-24T11:56:41.263Z,8.13
2022-10-24T11:59:47.527Z,8.03
2022-10-24T12:03:24.920Z,7.70
2022-10-24T12:06:56.055Z,7.13
2022-10-24T12:10:19.329Z,7.90
2022-10-24T12:13:51.612Z,9.40
2022-10-24T12:17:27.132Z,9.70
2022-10-24T12:20:35.297Z,14.10
2022-10-24T12:23:43.242Z,7.17
2022-10-24T12:26:57.603Z,10.37
2022-10-24T12:30:17.270Z,13.33
2022-10-24T12:33:27.616Z,10.50
2022-10-24T12:37:08.278Z,7.87
2022-10-24T12:40:55.440Z,5.43
2022-10-24T12:44:41.276Z,7.20
2022-10-24T12:48:30.535Z,10.67
2022-10-24T12:51:37.616Z,6.70
2022-10-24T12:54:46.556Z,7.07
2022-10-24T12:57:52.863Z,11.13
2022-10-24T13:01:01.709Z,7.33
2022-10-24T13:04:52.280Z,4.47
2022-10-24T13:08:08.258Z,14.13
2022-10-24T13:11:34.132Z,13.70
2022-10-24T13:15:04.575Z,11.77
2022-10-24T13:18:21.043Z,3.93
2022-10-24T13:21:31.189Z,9.33
2022-10-24T13:24:38.247Z,6.13
2022-10-24T13:27:45.613Z,9.60
2022-10-24T13:30:54.237Z,8.97
2022-10-24T13:34:37.591Z,14.27
2022-10-24T13:37:49.712Z,11.17
2022-10-24T13:40:55.947Z,14.03
2022-10-24T13:44:08.811Z,12.60
2022-10-24T13:47:22.528Z,10.00
2022-10-24T13:50:31.818Z,9.90
2022-10-24T13:53:50.360Z,10.80
2022-10-24T13:56:58.466Z,10.20
2022-10-24T14:00:19.737Z,22.30
2022-10-24T14:03:29.016Z,13.13
2022-10-24T14:06:35.758Z,13.27
2022-10-24T14:09:44.525Z,9.53
2022-10-24T14:12:57.087Z,9.60
2022-10-24T14:16:08.013Z,7.47
2022-10-24T14:19:27.241Z,18.00
2022-10-24T14:22:39.887Z,14.07
2022-10-24T14:25:46.502Z,34.23
2022-10-24T14:28:59.782Z,26.77
2022-10-24T14:32:09.395Z,8.20
2022-10-24T14:35:17.222Z,15.73
2022-10-24T14:38:24.733Z,17.47
2022-10-24T14:41:32.683Z,21.27
2022-10-24T14:44:39.319Z,23.43
2022-10-24T14:47:52.810Z,16.97
2022-10-24T14:51:04.015Z,18.10
2022-10-24T14:54:18.666Z,16.07
2022-10-24T14:57:25.175Z,8.63
2022-10-24T15:00:40.233Z,9.63
2022-10-24T15:03:54.518Z,16.83
2022-10-24T15:07:14.975Z,19.47
2022-10-24T15:10:33.239Z,46.23
2022-10-24T15:13:48.183Z,25.07
2022-10-24T15:17:06.551Z,18.90
2022-10-24T15:20:18.480Z,19.47
2022-10-24T15:23:27.668Z,12.67
2022-10-24T15:26:36.763Z,18.63
2022-10-24T15:29:43.075Z,19.37
2022-10-24T15:32:51.236Z,19.27
2022-10-24T15:35:59.503Z,15.40
2022-10-24T15:39:07.771Z,32.07
2022-10-24T15:42:15.585Z,40.37
2022-10-24T15:45:24.548Z,52.73
2022-10-24T15:48:30.637Z,38.27
2022-10-24T15:51:39.425Z,29.00
2022-10-24T15:54:46.016Z,25.43
2022-10-24T15:57:52.545Z,24.73
2022-10-24T16:01:00.409Z,40.17
2022-10-24T16:04:08.379Z,48.10
2022-10-24T16:07:15.785Z,31.00
2022-10-24T16:10:24.034Z,24.47
2022-10-24T16:13:30.665Z,22.73
2022-10-24T16:16:37.165Z,25.47
2022-10-24T16:19:43.474Z,24.07
2022-10-24T16:26:16.134Z,28.77
2022-10-24T16:29:22.545Z,53.17
2022-10-24T16:32:29.103Z,107.03
2022-10-24T16:35:36.960Z,57.20
2022-10-24T16:38:45.362Z,160.90
2022-10-24T16:41:55.297Z,129.10
2022-10-24T16:45:02.496Z,94.67
2022-10-24T16:48:08.562Z,99.97
2022-10-24T16:51:17.413Z,113.77
2022-10-24T16:54:25.693Z,70.07
2022-10-24T16:57:31.975Z,59.40
2022-10-24T17:00:38.321Z,57.47
2022-10-24T17:03:46.047Z,67.67
2022-10-24T17:06:52.258Z,60.30
2022-10-24T17:10:00.007Z,42.87
2022-10-24T17:13:07.678Z,43.77
2022-10-24T17:16:13.916Z,51.83
2022-10-24T17:19:19.999Z,50.07
2022-10-24T17:22:26.379Z,51.30
2022-10-24T17:25:34.351Z,60.67
2022-10-24T17:28:40.914Z,52.93
2022-10-24T17:31:47.071Z,44.27
2022-10-24T17:34:55.423Z,53.90
2022-10-24T17:38:12.847Z,55.17
2022-10-24T17:41:25.155Z,57.87
2022-10-24T17:44:31.703Z,65.20
2022-10-24T17:47:37.746Z,54.90
2022-10-24T17:50:44.122Z,76.00
2022-10-24T17:53:50.458Z,76.10
2022-10-24T17:56:58.258Z,72.90
2022-10-24T18:00:05.076Z,77.87
2022-10-24T18:03:11.590Z,89.47
2022-10-24T18:06:18.021Z,101.60
2022-10-24T18:09:24.126Z,76.70
2022-10-24T18:12:34.721Z,72.77
2022-10-24T18:15:40.878Z,80.67
2022-10-24T18:18:48.056Z,60.13
2022-10-24T18:21:54.474Z,59.40
2022-10-24T18:25:00.646Z,70.57
2022-10-24T18:28:08.668Z,68.20
2022-10-24T18:31:16.903Z,75.67
2022-10-24T18:34:23.246Z,86.23
2022-10-24T18:37:29.695Z,95.43
2022-10-24T18:40:38.055Z,65.73
2022-10-24T18:43:46.393Z,112.43
2022-10-24T18:46:54.198Z,120.27
2022-10-24T18:50:00.798Z,83.47
2022-10-24T18:53:09.952Z,75.53
2022-10-24T18:56:18.696Z,111.97
2022-10-24T18:59:30.913Z,112.33
2022-10-24T19:02:40.570Z,248.73
2022-10-24T19:05:53.556Z,320.10
2022-10-24T19:09:01.179Z,99.40
2022-10-24T19:12:08.273Z,35.40
2022-10-24T19:15:17.063Z,38.07
2022-10-24T19:18:23.513Z,43.77
2022-10-24T19:21:29.874Z,27.20
2022-10-24T19:24:36.347Z,32.70
2022-10-24T19:27:42.802Z,43.53
2022-10-24T19:30:50.589Z,46.50
2022-10-24T19:33:56.560Z,41.90
2022-10-24T19:37:03.897Z,48.43
2022-10-24T19:40:11.267Z,41.70
2022-10-24T19:43:17.663Z,34.47
2022-10-24T19:46:25.474Z,32.77
2022-10-24T19:49:31.759Z,25.00
2022-10-24T19:52:37.919Z,28.83
2022-10-24T19:55:44.938Z,33.50
2022-10-24T19:58:51.012Z,18.03
2022-10-24T20:05:10.547Z,31.23
2022-10-24T20:08:16.799Z,17.40
2022-10-24T20:11:23.435Z,24.13
2022-10-24T20:14:29.347Z,23.33
2022-10-24T20:17:36.745Z,28.00
2022-10-24T20:20:43.902Z,17.47
2022-10-24T20:23:50.862Z,33.60
2022-10-24T20:26:57.244Z,17.70
2022-10-24T20:30:03.225Z,12.87
2022-10-24T20:33:10.768Z,16.50
2022-10-24T20:36:16.792Z,10.23
2022-10-24T20:39:23.089Z,11.47
2022-10-24T20:42:29.387Z,11.97
2022-10-24T20:45:39.970Z,20.83
2022-10-24T20:48:47.619Z,33.13
2022-10-24T20:51:53.854Z,34.63
2022-10-24T20:54:59.993Z,45.10
2022-10-24T20:58:06.751Z,18.47
2022-10-24T21:01:14.935Z,13.03
2022-10-24T21:04:22.683Z,13.77
2022-10-24T21:07:28.748Z,26.40
2022-10-24T21:10:34.963Z,15.10
2022-10-24T21:13:41.388Z,12.77
2022-10-24T21:16:47.496Z,10.10
2022-10-24T21:19:54.862Z,21.60
2022-10-24T21:23:01.408Z,10.53
2022-10-24T21:26:09.235Z,26.57
2022-10-24T21:29:32.111Z,12.07
2022-10-24T21:32:39.550Z,16.03
2022-10-24T21:35:47.298Z,23.70
2022-10-24T21:38:56.467Z,33.33
2022-10-24T21:42:02.833Z,9.03
2022-10-24T21:45:09.504Z,13.73
2022-10-24T21:48:15.944Z,7.53
2022-10-24T21:51:26.755Z,18.10
2022-10-24T21:54:33.363Z,13.20
2022-10-24T21:57:39.453Z,13.93
2022-10-24T22:00:45.816Z,13.93
2022-10-24T22:03:51.944Z,13.57
2022-10-24T22:06:59.484Z,9.03
2022-10-24T22:10:05.724Z,9.60
2022-10-24T22:13:11.769Z,11.60
2022-10-24T22:16:19.635Z,16.93
2022-10-24T22:19:25.595Z,11.70
2022-10-24T22:22:32.979Z,7.30
2022-10-24T22:25:39.184Z,9.73
2022-10-24T22:28:45.603Z,7.93
2022-10-24T22:31:53.680Z,12.87
2022-10-24T22:35:00.948Z,18.93
2022-10-24T22:38:10.051Z,21.00
2022-10-24T22:41:16.577Z,32.00
2022-10-24T22:44:23.948Z,30.07
2022-10-24T22:47:49.565Z,22.00
2022-10-24T22:50:57.999Z,24.97
2022-10-24T22:54:06.387Z,11.90
2022-10-24T22:57:12.724Z,13.60
2022-10-24T23:00:20.477Z,8.93
2022-10-24T23:03:34.123Z,12.00
2022-10-24T23:06:47.215Z,13.73
2022-10-24T23:09:54.836Z,8.07
2022-10-24T23:13:01.679Z,9.23
2022-10-24T23:16:21.539Z,14.37
2022-10-24T23:19:29.761Z,11.07
2022-10-24T23:22:35.971Z,14.83
2022-10-24T23:25:48.694Z,6.80
2022-10-24T23:29:04.009Z,6.13
2022-10-24T23:32:19.052Z,13.43
2022-10-24T23:35:25.679Z,14.13
2022-10-24T23:38:32.717Z,13.37
2022-10-24T23:41:41.520Z,7.47
2022-10-24T23:44:48.380Z,14.63
2022-10-24T23:48:22.423Z,5.57
2022-10-24T23:51:32.191Z,9.63
2022-10-24T23:54:38.819Z,7.87
2022-10-24T23:57:46.824Z,6.43
